sensor_id;sensor_type;location;lat;lon;timestamp;temperature;humidity
27559;DHT22;15002;52.028;5.670;2022-12-18T00:02:01;0.40;99.90
27559;DHT22;15002;52.028;5.670;2022-12-18T00:04:27;0.40;99.90
27559;DHT22;15002;52.028;5.670;2022-12-18T00:06:53;0.30;99.90
27559;DHT22;15002;52.028;5.670;2022-12-18T00:09:20;0.10;99.90
27559;DHT22;15002;52.028;5.670;2022-12-18T00:11:45;0.00;99.90
27559;DHT22;15002;52.028;5.670;2022-12-18T00:14:12;0.30;99.90
27559;DHT22;15002;52.028;5.670;2022-12-18T00:16:38;0.30;99.90
27559;DHT22;15002;52.028;5.670;2022-12-18T00:19:05;0.30;99.90
27559;DHT22;15002;52.028;5.670;2022-12-18T00:21:31;0.20;99.90
27559;DHT22;15002;52.028;5.670;2022-12-18T00:23:59;0.10;99.90
27559;DHT22;15002;52.028;5.670;2022-12-18T00:26:30;0.10;99.90
27559;DHT22;15002;52.028;5.670;2022-12-18T00:28:58;0.10;99.90
27559;DHT22;15002;52.028;5.670;2022-12-18T00:31:24;0.20;99.90
27559;DHT22;15002;52.028;5.670;2022-12-18T00:33:51;0.10;99.90
27559;DHT22;15002;52.028;5.670;2022-12-18T00:36:22;0.00;99.90
27559;DHT22;15002;52.028;5.670;2022-12-18T00:38:48;0.10;99.90
27559;DHT22;15002;52.028;5.670;2022-12-18T00:41:15;0.00;99.90
27559;DHT22;15002;52.028;5.670;2022-12-18T00:44:05;0.00;99.90
27559;DHT22;15002;52.028;5.670;2022-12-18T00:46:31;0.00;99.90
27559;DHT22;15002;52.028;5.670;2022-12-18T00:48:57;0.00;99.90
27559;DHT22;15002;52.028;5.670;2022-12-18T00:51:23;-0.20;99.90
27559;DHT22;15002;52.028;5.670;2022-12-18T00:53:48;-0.10;99.90
27559;DHT22;15002;52.028;5.670;2022-12-18T00:56:14;-0.20;99.90
27559;DHT22;15002;52.028;5.670;2022-12-18T00:58:40;-0.10;99.90
27559;DHT22;15002;52.028;5.670;2022-12-18T01:01:06;-0.20;99.90
27559;DHT22;15002;52.028;5.670;2022-12-18T01:03:32;-0.30;99.90
27559;DHT22;15002;52.028;5.670;2022-12-18T01:05:58;-0.40;99.90
27559;DHT22;15002;52.028;5.670;2022-12-18T01:08:23;-0.40;99.90
27559;DHT22;15002;52.028;5.670;2022-12-18T01:10:49;-0.40;99.90
27559;DHT22;15002;52.028;5.670;2022-12-18T01:13:15;-0.40;99.90
27559;DHT22;15002;52.028;5.670;2022-12-18T01:15:48;-0.20;99.90
27559;DHT22;15002;52.028;5.670;2022-12-18T01:18:14;-0.30;99.90
27559;DHT22;15002;52.028;5.670;2022-12-18T01:20:40;-0.30;99.90
27559;DHT22;15002;52.028;5.670;2022-12-18T01:23:06;-0.30;99.90
27559;DHT22;15002;52.028;5.670;2022-12-18T01:25:31;-0.20;99.90
27559;DHT22;15002;52.028;5.670;2022-12-18T01:27:57;-0.30;99.90
27559;DHT22;15002;52.028;5.670;2022-12-18T01:30:22;-0.40;99.90
27559;DHT22;15002;52.028;5.670;2022-12-18T01:32:48;-0.40;99.90
27559;DHT22;15002;52.028;5.670;2022-12-18T01:35:14;-0.40;99.90
27559;DHT22;15002;52.028;5.670;2022-12-18T01:37:40;-0.30;99.90
27559;DHT22;15002;52.028;5.670;2022-12-18T01:40:06;-0.30;99.90
27559;DHT22;15002;52.028;5.670;2022-12-18T01:42:32;-0.20;99.90
27559;DHT22;15002;52.028;5.670;2022-12-18T01:45:24;-0.30;99.90
27559;DHT22;15002;52.028;5.670;2022-12-18T01:47:56;-0.40;99.90
27559;DHT22;15002;52.028;5.670;2022-12-18T01:50:32;-0.40;99.90
27559;DHT22;15002;52.028;5.670;2022-12-18T01:52:59;-0.40;99.90
27559;DHT22;15002;52.028;5.670;2022-12-18T01:55:28;-0.50;99.90
27559;DHT22;15002;52.028;5.670;2022-12-18T01:57:56;-0.40;99.90
27559;DHT22;15002;52.028;5.670;2022-12-18T02:00:24;-0.40;99.90
27559;DHT22;15002;52.028;5.670;2022-12-18T02:02:49;-0.30;99.90
27559;DHT22;15002;52.028;5.670;2022-12-18T02:05:18;-0.40;99.90
27559;DHT22;15002;52.028;5.670;2022-12-18T02:08:12;-0.50;99.90
27559;DHT22;15002;52.028;5.670;2022-12-18T02:10:53;-0.50;99.90
27559;DHT22;15002;52.028;5.670;2022-12-18T02:16:21;-0.40;99.90
27559;DHT22;15002;52.028;5.670;2022-12-18T02:18:53;-0.40;99.90
27559;DHT22;15002;52.028;5.670;2022-12-18T02:21:41;-0.50;99.90
27559;DHT22;15002;52.028;5.670;2022-12-18T02:24:17;-0.50;99.90
27559;DHT22;15002;52.028;5.670;2022-12-18T02:26:50;-0.50;99.90
27559;DHT22;15002;52.028;5.670;2022-12-18T02:29:48;-0.50;99.90
27559;DHT22;15002;52.028;5.670;2022-12-18T02:32:22;-0.40;99.90
27559;DHT22;15002;52.028;5.670;2022-12-18T02:34:51;-0.50;99.90
27559;DHT22;15002;52.028;5.670;2022-12-18T02:37:18;-0.50;99.90
27559;DHT22;15002;52.028;5.670;2022-12-18T02:39:46;-0.60;99.90
27559;DHT22;15002;52.028;5.670;2022-12-18T02:42:13;-0.60;99.90
27559;DHT22;15002;52.028;5.670;2022-12-18T02:44:47;-0.50;99.90
27559;DHT22;15002;52.028;5.670;2022-12-18T02:47:16;-0.70;99.90
27559;DHT22;15002;52.028;5.670;2022-12-18T02:52:26;-0.80;99.90
27559;DHT22;15002;52.028;5.670;2022-12-18T02:58:10;-0.70;99.90
27559;DHT22;15002;52.028;5.670;2022-12-18T03:01:01;-0.70;99.90
27559;DHT22;15002;52.028;5.670;2022-12-18T03:03:38;-0.70;99.90
27559;DHT22;15002;52.028;5.670;2022-12-18T03:06:12;-0.80;99.90
27559;DHT22;15002;52.028;5.670;2022-12-18T03:08:43;-0.80;99.90
27559;DHT22;15002;52.028;5.670;2022-12-18T03:11:12;-0.80;99.90
27559;DHT22;15002;52.028;5.670;2022-12-18T03:13:50;-0.80;99.90
27559;DHT22;15002;52.028;5.670;2022-12-18T03:16:22;-0.70;99.90
27559;DHT22;15002;52.028;5.670;2022-12-18T03:18:58;-0.90;99.90
27559;DHT22;15002;52.028;5.670;2022-12-18T03:21:35;-0.80;99.90
27559;DHT22;15002;52.028;5.670;2022-12-18T03:24:04;-0.80;99.90
27559;DHT22;15002;52.028;5.670;2022-12-18T03:26:31;-0.80;99.90
27559;DHT22;15002;52.028;5.670;2022-12-18T03:29:03;-0.80;99.90
27559;DHT22;15002;52.028;5.670;2022-12-18T03:31:31;-0.90;99.90
27559;DHT22;15002;52.028;5.670;2022-12-18T03:34:09;-1.00;99.90
27559;DHT22;15002;52.028;5.670;2022-12-18T03:36:36;-0.90;99.90
27559;DHT22;15002;52.028;5.670;2022-12-18T03:39:02;-0.90;99.90
27559;DHT22;15002;52.028;5.670;2022-12-18T03:42:20;-0.90;99.90
27559;DHT22;15002;52.028;5.670;2022-12-18T03:53:03;-1.00;99.90
27559;DHT22;15002;52.028;5.670;2022-12-18T03:55:32;-1.00;99.90
27559;DHT22;15002;52.028;5.670;2022-12-18T03:57:59;-1.00;99.90
27559;DHT22;15002;52.028;5.670;2022-12-18T04:00:28;-0.90;99.90
27559;DHT22;15002;52.028;5.670;2022-12-18T04:02:55;-1.00;99.90
27559;DHT22;15002;52.028;5.670;2022-12-18T04:05:25;-1.00;99.90
27559;DHT22;15002;52.028;5.670;2022-12-18T04:07:51;-1.10;99.90
27559;DHT22;15002;52.028;5.670;2022-12-18T04:10:18;-1.10;99.90
27559;DHT22;15002;52.028;5.670;2022-12-18T04:12:43;-1.10;99.90
27559;DHT22;15002;52.028;5.670;2022-12-18T04:15:10;-1.10;99.90
27559;DHT22;15002;52.028;5.670;2022-12-18T04:17:36;-1.00;99.90
27559;DHT22;15002;52.028;5.670;2022-12-18T04:20:03;-1.10;99.90
27559;DHT22;15002;52.028;5.670;2022-12-18T04:22:28;-1.10;99.90
27559;DHT22;15002;52.028;5.670;2022-12-18T04:24:54;-1.10;99.90
27559;DHT22;15002;52.028;5.670;2022-12-18T04:27:20;-1.10;99.90
27559;DHT22;15002;52.028;5.670;2022-12-18T04:29:45;-1.20;99.90
27559;DHT22;15002;52.028;5.670;2022-12-18T04:32:11;-1.10;99.90
27559;DHT22;15002;52.028;5.670;2022-12-18T04:34:37;-1.20;99.90
27559;DHT22;15002;52.028;5.670;2022-12-18T04:37:02;-1.20;99.90
27559;DHT22;15002;52.028;5.670;2022-12-18T04:39:28;-1.20;99.90
27559;DHT22;15002;52.028;5.670;2022-12-18T04:41:53;-1.20;99.90
27559;DHT22;15002;52.028;5.670;2022-12-18T04:44:19;-1.10;99.90
27559;DHT22;15002;52.028;5.670;2022-12-18T04:46:45;-1.10;99.90
27559;DHT22;15002;52.028;5.670;2022-12-18T04:49:10;-1.20;99.90
27559;DHT22;15002;52.028;5.670;2022-12-18T04:51:36;-1.20;99.90
27559;DHT22;15002;52.028;5.670;2022-12-18T04:54:02;-1.20;99.90
27559;DHT22;15002;52.028;5.670;2022-12-18T04:56:30;-1.20;99.90
27559;DHT22;15002;52.028;5.670;2022-12-18T04:58:55;-1.20;99.90
27559;DHT22;15002;52.028;5.670;2022-12-18T05:01:21;-1.20;99.90
27559;DHT22;15002;52.028;5.670;2022-12-18T05:03:47;-1.20;99.90
27559;DHT22;15002;52.028;5.670;2022-12-18T05:06:13;-1.30;99.90
27559;DHT22;15002;52.028;5.670;2022-12-18T05:08:38;-1.30;99.90
27559;DHT22;15002;52.028;5.670;2022-12-18T05:11:14;-1.40;99.90
27559;DHT22;15002;52.028;5.670;2022-12-18T05:13:44;-1.40;99.90
27559;DHT22;15002;52.028;5.670;2022-12-18T05:16:10;-1.40;99.90
27559;DHT22;15002;52.028;5.670;2022-12-18T05:18:36;-1.40;99.90
27559;DHT22;15002;52.028;5.670;2022-12-18T05:21:02;-1.30;99.90
27559;DHT22;15002;52.028;5.670;2022-12-18T05:23:29;-1.30;99.90
27559;DHT22;15002;52.028;5.670;2022-12-18T05:25:58;-1.30;99.90
27559;DHT22;15002;52.028;5.670;2022-12-18T05:28:25;-1.40;99.90
27559;DHT22;15002;52.028;5.670;2022-12-18T05:30:53;-1.40;99.90
27559;DHT22;15002;52.028;5.670;2022-12-18T05:33:20;-1.30;99.90
27559;DHT22;15002;52.028;5.670;2022-12-18T05:35:54;-1.30;99.90
27559;DHT22;15002;52.028;5.670;2022-12-18T05:38:21;-1.40;99.90
27559;DHT22;15002;52.028;5.670;2022-12-18T05:40:51;-1.30;99.90
27559;DHT22;15002;52.028;5.670;2022-12-18T05:43:18;-1.20;99.90
27559;DHT22;15002;52.028;5.670;2022-12-18T05:45:44;-1.30;99.90
27559;DHT22;15002;52.028;5.670;2022-12-18T05:48:12;-1.20;99.90
27559;DHT22;15002;52.028;5.670;2022-12-18T05:50:40;-1.20;99.90
27559;DHT22;15002;52.028;5.670;2022-12-18T05:53:06;-1.20;99.90
27559;DHT22;15002;52.028;5.670;2022-12-18T05:55:36;-1.20;99.90
27559;DHT22;15002;52.028;5.670;2022-12-18T05:58:03;-1.20;99.90
27559;DHT22;15002;52.028;5.670;2022-12-18T06:00:29;-1.20;99.90
27559;DHT22;15002;52.028;5.670;2022-12-18T06:02:55;-1.10;99.90
27559;DHT22;15002;52.028;5.670;2022-12-18T06:05:21;-1.10;99.90
27559;DHT22;15002;52.028;5.670;2022-12-18T06:07:47;-1.10;99.90
27559;DHT22;15002;52.028;5.670;2022-12-18T06:10:12;-1.10;99.90
27559;DHT22;15002;52.028;5.670;2022-12-18T06:12:38;-1.00;99.90
27559;DHT22;15002;52.028;5.670;2022-12-18T06:15:04;-1.10;99.90
27559;DHT22;15002;52.028;5.670;2022-12-18T06:17:33;-1.00;99.90
27559;DHT22;15002;52.028;5.670;2022-12-18T06:19:59;-0.90;99.90
27559;DHT22;15002;52.028;5.670;2022-12-18T06:22:25;-1.10;99.90
27559;DHT22;15002;52.028;5.670;2022-12-18T06:24:51;-1.10;99.90
27559;DHT22;15002;52.028;5.670;2022-12-18T06:27:17;-1.10;99.90
27559;DHT22;15002;52.028;5.670;2022-12-18T06:29:42;-1.10;99.90
27559;DHT22;15002;52.028;5.670;2022-12-18T06:32:08;-1.00;99.90
27559;DHT22;15002;52.028;5.670;2022-12-18T06:34:34;-0.90;99.90
27559;DHT22;15002;52.028;5.670;2022-12-18T06:37:02;-0.90;99.90
27559;DHT22;15002;52.028;5.670;2022-12-18T06:39:28;-0.90;99.90
27559;DHT22;15002;52.028;5.670;2022-12-18T06:41:53;-1.00;99.90
27559;DHT22;15002;52.028;5.670;2022-12-18T06:44:19;-1.00;99.90
27559;DHT22;15002;52.028;5.670;2022-12-18T06:46:45;-0.90;99.90
27559;DHT22;15002;52.028;5.670;2022-12-18T06:49:11;-0.80;99.90
27559;DHT22;15002;52.028;5.670;2022-12-18T06:51:36;-0.90;99.90
27559;DHT22;15002;52.028;5.670;2022-12-18T06:54:02;-1.00;99.90
27559;DHT22;15002;52.028;5.670;2022-12-18T06:56:28;-1.00;99.90
27559;DHT22;15002;52.028;5.670;2022-12-18T06:58:54;-1.00;99.90
27559;DHT22;15002;52.028;5.670;2022-12-18T07:01:20;-0.80;99.90
27559;DHT22;15002;52.028;5.670;2022-12-18T07:03:47;-0.80;99.90
27559;DHT22;15002;52.028;5.670;2022-12-18T07:06:14;-0.80;99.90
27559;DHT22;15002;52.028;5.670;2022-12-18T07:08:40;-0.70;99.90
27559;DHT22;15002;52.028;5.670;2022-12-18T07:11:06;-0.70;99.90
27559;DHT22;15002;52.028;5.670;2022-12-18T07:13:32;-0.60;99.90
27559;DHT22;15002;52.028;5.670;2022-12-18T07:18:30;-0.70;99.90
27559;DHT22;15002;52.028;5.670;2022-12-18T07:20:56;-0.70;99.90
27559;DHT22;15002;52.028;5.670;2022-12-18T07:23:21;-0.70;99.90
27559;DHT22;15002;52.028;5.670;2022-12-18T07:25:47;-0.80;99.90
27559;DHT22;15002;52.028;5.670;2022-12-18T07:28:13;-0.70;99.90
27559;DHT22;15002;52.028;5.670;2022-12-18T07:30:40;-0.70;99.90
27559;DHT22;15002;52.028;5.670;2022-12-18T07:33:05;-0.50;99.90
27559;DHT22;15002;52.028;5.670;2022-12-18T07:35:32;-0.60;99.90
27559;DHT22;15002;52.028;5.670;2022-12-18T07:37:58;-0.50;99.90
27559;DHT22;15002;52.028;5.670;2022-12-18T07:40:24;-0.40;99.90
27559;DHT22;15002;52.028;5.670;2022-12-18T07:42:49;-0.40;99.90
27559;DHT22;15002;52.028;5.670;2022-12-18T07:45:15;-0.30;99.90
27559;DHT22;15002;52.028;5.670;2022-12-18T07:47:41;-0.30;99.90
27559;DHT22;15002;52.028;5.670;2022-12-18T07:50:06;-0.40;99.90
27559;DHT22;15002;52.028;5.670;2022-12-18T07:52:32;-0.20;99.90
27559;DHT22;15002;52.028;5.670;2022-12-18T07:54:58;-0.40;99.90
27559;DHT22;15002;52.028;5.670;2022-12-18T07:57:24;-0.20;99.90
27559;DHT22;15002;52.028;5.670;2022-12-18T07:59:49;-0.40;99.90
27559;DHT22;15002;52.028;5.670;2022-12-18T08:02:15;-0.30;99.90
27559;DHT22;15002;52.028;5.670;2022-12-18T08:04:40;-0.30;99.90
27559;DHT22;15002;52.028;5.670;2022-12-18T08:07:06;-0.30;99.90
27559;DHT22;15002;52.028;5.670;2022-12-18T08:09:32;-0.10;99.90
27559;DHT22;15002;52.028;5.670;2022-12-18T08:11:57;0.00;99.90
27559;DHT22;15002;52.028;5.670;2022-12-18T08:14:23;-0.10;99.90
27559;DHT22;15002;52.028;5.670;2022-12-18T08:16:48;-0.10;99.90
27559;DHT22;15002;52.028;5.670;2022-12-18T08:19:14;0.10;99.90
27559;DHT22;15002;52.028;5.670;2022-12-18T08:21:40;0.30;99.90
27559;DHT22;15002;52.028;5.670;2022-12-18T08:24:05;0.50;99.90
27559;DHT22;15002;52.028;5.670;2022-12-18T08:26:31;0.60;99.90
27559;DHT22;15002;52.028;5.670;2022-12-18T08:28:59;0.50;99.90
27559;DHT22;15002;52.028;5.670;2022-12-18T08:31:27;0.50;99.90
27559;DHT22;15002;52.028;5.670;2022-12-18T08:33:53;0.60;99.90
27559;DHT22;15002;52.028;5.670;2022-12-18T08:36:19;0.50;99.90
27559;DHT22;15002;52.028;5.670;2022-12-18T08:38:45;0.60;99.90
27559;DHT22;15002;52.028;5.670;2022-12-18T08:41:13;0.70;99.90
27559;DHT22;15002;52.028;5.670;2022-12-18T08:43:40;0.60;99.90
27559;DHT22;15002;52.028;5.670;2022-12-18T08:46:26;1.00;99.90
27559;DHT22;15002;52.028;5.670;2022-12-18T08:48:52;1.10;99.90
27559;DHT22;15002;52.028;5.670;2022-12-18T08:51:19;0.90;99.90
27559;DHT22;15002;52.028;5.670;2022-12-18T08:53:45;1.00;99.90
27559;DHT22;15002;52.028;5.670;2022-12-18T08:56:12;1.10;99.90
27559;DHT22;15002;52.028;5.670;2022-12-18T08:58:38;1.10;99.90
27559;DHT22;15002;52.028;5.670;2022-12-18T09:01:06;1.10;99.90
27559;DHT22;15002;52.028;5.670;2022-12-18T09:03:32;1.10;99.90
27559;DHT22;15002;52.028;5.670;2022-12-18T09:05:58;1.20;99.90
27559;DHT22;15002;52.028;5.670;2022-12-18T09:08:25;1.20;99.90
27559;DHT22;15002;52.028;5.670;2022-12-18T09:10:51;1.20;99.90
27559;DHT22;15002;52.028;5.670;2022-12-18T09:13:17;1.20;99.90
27559;DHT22;15002;52.028;5.670;2022-12-18T09:15:53;1.40;99.90
27559;DHT22;15002;52.028;5.670;2022-12-18T09:18:21;1.40;99.90
27559;DHT22;15002;52.028;5.670;2022-12-18T09:20:47;1.30;99.90
27559;DHT22;15002;52.028;5.670;2022-12-18T09:23:13;1.50;99.90
27559;DHT22;15002;52.028;5.670;2022-12-18T09:25:39;1.50;99.90
27559;DHT22;15002;52.028;5.670;2022-12-18T09:28:09;1.60;99.90
27559;DHT22;15002;52.028;5.670;2022-12-18T09:30:41;1.60;99.90
27559;DHT22;15002;52.028;5.670;2022-12-18T09:33:07;1.80;99.90
27559;DHT22;15002;52.028;5.670;2022-12-18T09:35:36;1.80;99.90
27559;DHT22;15002;52.028;5.670;2022-12-18T09:38:02;1.80;99.90
27559;DHT22;15002;52.028;5.670;2022-12-18T09:40:35;1.90;99.90
27559;DHT22;15002;52.028;5.670;2022-12-18T09:43:04;1.90;99.90
27559;DHT22;15002;52.028;5.670;2022-12-18T09:45:43;1.90;99.90
27559;DHT22;15002;52.028;5.670;2022-12-18T09:48:40;2.10;99.90
27559;DHT22;15002;52.028;5.670;2022-12-18T09:51:15;1.90;99.90
27559;DHT22;15002;52.028;5.670;2022-12-18T09:53:47;2.00;99.90
27559;DHT22;15002;52.028;5.670;2022-12-18T09:56:19;2.00;99.90
27559;DHT22;15002;52.028;5.670;2022-12-18T09:58:57;2.00;99.90
27559;DHT22;15002;52.028;5.670;2022-12-18T10:01:23;2.00;99.90
27559;DHT22;15002;52.028;5.670;2022-12-18T10:03:50;2.10;99.90
27559;DHT22;15002;52.028;5.670;2022-12-18T10:09:37;2.00;99.90
27559;DHT22;15002;52.028;5.670;2022-12-18T10:12:32;1.90;99.90
27559;DHT22;15002;52.028;5.670;2022-12-18T10:20:45;2.10;99.90
27559;DHT22;15002;52.028;5.670;2022-12-18T10:26:28;2.30;99.90
27559;DHT22;15002;52.028;5.670;2022-12-18T10:28:54;2.40;99.90
27559;DHT22;15002;52.028;5.670;2022-12-18T10:31:23;2.40;99.90
27559;DHT22;15002;52.028;5.670;2022-12-18T10:33:49;2.40;99.90
27559;DHT22;15002;52.028;5.670;2022-12-18T10:36:15;2.40;99.90
27559;DHT22;15002;52.028;5.670;2022-12-18T10:38:41;2.30;99.90
27559;DHT22;15002;52.028;5.670;2022-12-18T10:44:17;2.50;99.90
27559;DHT22;15002;52.028;5.670;2022-12-18T10:46:52;2.50;99.90
27559;DHT22;15002;52.028;5.670;2022-12-18T10:49:31;2.60;99.90
27559;DHT22;15002;52.028;5.670;2022-12-18T10:52:24;2.70;99.90
27559;DHT22;15002;52.028;5.670;2022-12-18T10:54:55;2.70;99.90
27559;DHT22;15002;52.028;5.670;2022-12-18T10:59:54;2.70;99.90
27559;DHT22;15002;52.028;5.670;2022-12-18T11:02:33;2.90;99.90
27559;DHT22;15002;52.028;5.670;2022-12-18T11:04:59;2.70;99.90
27559;DHT22;15002;52.028;5.670;2022-12-18T11:07:24;2.80;99.90
27559;DHT22;15002;52.028;5.670;2022-12-18T11:10:03;2.70;99.90
27559;DHT22;15002;52.028;5.670;2022-12-18T11:12:29;2.70;99.90
27559;DHT22;15002;52.028;5.670;2022-12-18T11:14:56;2.80;99.90
27559;DHT22;15002;52.028;5.670;2022-12-18T11:17:31;2.80;99.90
27559;DHT22;15002;52.028;5.670;2022-12-18T11:20:01;3.00;99.90
27559;DHT22;15002;52.028;5.670;2022-12-18T11:22:33;3.10;99.90
27559;DHT22;15002;52.028;5.670;2022-12-18T11:27:28;2.90;99.90
27559;DHT22;15002;52.028;5.670;2022-12-18T11:32:48;2.80;99.90
27559;DHT22;15002;52.028;5.670;2022-12-18T11:35:19;3.10;99.90
27559;DHT22;15002;52.028;5.670;2022-12-18T11:37:53;3.10;99.90
27559;DHT22;15002;52.028;5.670;2022-12-18T11:40:33;3.20;99.90
27559;DHT22;15002;52.028;5.670;2022-12-18T11:44:01;3.00;99.90
27559;DHT22;15002;52.028;5.670;2022-12-18T11:46:15;3.20;99.90
27559;DHT22;15002;52.028;5.670;2022-12-18T11:48:52;3.40;99.90
27559;DHT22;15002;52.028;5.670;2022-12-18T11:51:35;3.40;99.90
27559;DHT22;15002;52.028;5.670;2022-12-18T11:54:14;3.40;99.90
27559;DHT22;15002;52.028;5.670;2022-12-18T11:57:06;3.40;99.90
27559;DHT22;15002;52.028;5.670;2022-12-18T12:00:01;3.30;99.90
27559;DHT22;15002;52.028;5.670;2022-12-18T12:05:20;3.40;99.90
27559;DHT22;15002;52.028;5.670;2022-12-18T12:16:59;3.50;99.90
27559;DHT22;15002;52.028;5.670;2022-12-18T12:30:20;3.80;99.90
27559;DHT22;15002;52.028;5.670;2022-12-18T12:38:16;3.70;99.90
27559;DHT22;15002;52.028;5.670;2022-12-18T12:41:14;3.60;99.90
27559;DHT22;15002;52.028;5.670;2022-12-18T12:44:03;3.70;99.90
27559;DHT22;15002;52.028;5.670;2022-12-18T12:46:34;3.70;99.90
27559;DHT22;15002;52.028;5.670;2022-12-18T12:49:13;3.80;99.90
27559;DHT22;15002;52.028;5.670;2022-12-18T12:51:43;3.80;99.70
27559;DHT22;15002;52.028;5.670;2022-12-18T12:54:20;3.80;99.80
27559;DHT22;15002;52.028;5.670;2022-12-18T12:57:16;3.80;99.90
27559;DHT22;15002;52.028;5.670;2022-12-18T13:02:47;4.00;99.60
27559;DHT22;15002;52.028;5.670;2022-12-18T13:05:21;4.10;99.20
27559;DHT22;15002;52.028;5.670;2022-12-18T13:08:01;4.00;99.20
27559;DHT22;15002;52.028;5.670;2022-12-18T13:10:41;3.90;99.40
27559;DHT22;15002;52.028;5.670;2022-12-18T13:15:44;3.90;99.40
27559;DHT22;15002;52.028;5.670;2022-12-18T13:18:14;3.80;99.80
27559;DHT22;15002;52.028;5.670;2022-12-18T13:21:01;3.90;99.60
27559;DHT22;15002;52.028;5.670;2022-12-18T13:23:35;4.00;99.40
27559;DHT22;15002;52.028;5.670;2022-12-18T13:38:39;4.00;99.20
27559;DHT22;15002;52.028;5.670;2022-12-18T13:41:23;3.80;99.20
27559;DHT22;15002;52.028;5.670;2022-12-18T13:43:51;3.90;99.20
27559;DHT22;15002;52.028;5.670;2022-12-18T13:49:25;4.00;99.00
27559;DHT22;15002;52.028;5.670;2022-12-18T13:51:51;4.10;98.80
27559;DHT22;15002;52.028;5.670;2022-12-18T13:56:50;4.00;98.60
27559;DHT22;15002;52.028;5.670;2022-12-18T14:04:23;4.00;99.10
27559;DHT22;15002;52.028;5.670;2022-12-18T14:06:52;4.00;98.90
27559;DHT22;15002;52.028;5.670;2022-12-18T14:09:28;3.80;99.00
27559;DHT22;15002;52.028;5.670;2022-12-18T14:11:55;3.80;99.20
27559;DHT22;15002;52.028;5.670;2022-12-18T14:14:47;3.80;99.00
27559;DHT22;15002;52.028;5.670;2022-12-18T14:17:14;3.90;99.00
27559;DHT22;15002;52.028;5.670;2022-12-18T14:19:58;3.90;99.10
27559;DHT22;15002;52.028;5.670;2022-12-18T14:22:25;4.00;98.90
27559;DHT22;15002;52.028;5.670;2022-12-18T14:25:15;3.90;98.70
27559;DHT22;15002;52.028;5.670;2022-12-18T14:27:51;4.00;98.60
27559;DHT22;15002;52.028;5.670;2022-12-18T14:35:41;4.10;98.40
27559;DHT22;15002;52.028;5.670;2022-12-18T14:38:23;3.80;98.50
27559;DHT22;15002;52.028;5.670;2022-12-18T14:41:04;3.90;98.80
27559;DHT22;15002;52.028;5.670;2022-12-18T14:43:34;3.90;98.70
27559;DHT22;15002;52.028;5.670;2022-12-18T14:46:01;4.00;98.50
27559;DHT22;15002;52.028;5.670;2022-12-18T14:48:39;3.80;98.60
27559;DHT22;15002;52.028;5.670;2022-12-18T14:51:17;3.90;99.00
27559;DHT22;15002;52.028;5.670;2022-12-18T14:56:36;3.80;98.90
27559;DHT22;15002;52.028;5.670;2022-12-18T15:04:29;4.00;98.80
27559;DHT22;15002;52.028;5.670;2022-12-18T15:09:38;4.00;98.80
27559;DHT22;15002;52.028;5.670;2022-12-18T15:12:04;4.00;98.50
27559;DHT22;15002;52.028;5.670;2022-12-18T15:14:40;4.00;98.70
27559;DHT22;15002;52.028;5.670;2022-12-18T15:17:21;3.90;98.80
27559;DHT22;15002;52.028;5.670;2022-12-18T15:19:50;3.90;98.90
27559;DHT22;15002;52.028;5.670;2022-12-18T15:24:53;3.90;98.90
27559;DHT22;15002;52.028;5.670;2022-12-18T15:30:00;3.90;99.10
27559;DHT22;15002;52.028;5.670;2022-12-18T15:32:26;3.80;99.00
27559;DHT22;15002;52.028;5.670;2022-12-18T15:35:23;3.80;99.10
27559;DHT22;15002;52.028;5.670;2022-12-18T15:37:49;3.70;99.20
27559;DHT22;15002;52.028;5.670;2022-12-18T15:40:16;3.80;99.10
27559;DHT22;15002;52.028;5.670;2022-12-18T15:42:42;3.80;98.90
27559;DHT22;15002;52.028;5.670;2022-12-18T15:45:27;4.00;99.00
27559;DHT22;15002;52.028;5.670;2022-12-18T15:47:53;3.90;99.00
27559;DHT22;15002;52.028;5.670;2022-12-18T15:50:18;4.00;98.90
27559;DHT22;15002;52.028;5.670;2022-12-18T15:52:46;3.90;98.90
27559;DHT22;15002;52.028;5.670;2022-12-18T15:55:18;3.90;99.00
27559;DHT22;15002;52.028;5.670;2022-12-18T15:58:04;3.80;98.90
27559;DHT22;15002;52.028;5.670;2022-12-18T16:00:30;3.80;99.10
27559;DHT22;15002;52.028;5.670;2022-12-18T16:02:56;3.90;98.90
27559;DHT22;15002;52.028;5.670;2022-12-18T16:05:23;3.80;99.00
27559;DHT22;15002;52.028;5.670;2022-12-18T16:07:48;3.80;99.20
27559;DHT22;15002;52.028;5.670;2022-12-18T16:10:15;3.80;99.10
27559;DHT22;15002;52.028;5.670;2022-12-18T16:12:41;3.80;99.20
27559;DHT22;15002;52.028;5.670;2022-12-18T16:15:10;3.80;99.10
27559;DHT22;15002;52.028;5.670;2022-12-18T16:17:39;3.70;99.30
27559;DHT22;15002;52.028;5.670;2022-12-18T16:20:06;3.90;99.30
27559;DHT22;15002;52.028;5.670;2022-12-18T16:22:31;3.80;99.20
27559;DHT22;15002;52.028;5.670;2022-12-18T16:24:57;3.90;99.10
27559;DHT22;15002;52.028;5.670;2022-12-18T16:27:24;4.00;98.80
27559;DHT22;15002;52.028;5.670;2022-12-18T16:29:50;4.00;98.80
27559;DHT22;15002;52.028;5.670;2022-12-18T16:32:20;4.00;99.00
27559;DHT22;15002;52.028;5.670;2022-12-18T16:34:46;3.80;99.00
27559;DHT22;15002;52.028;5.670;2022-12-18T16:37:13;3.80;99.20
27559;DHT22;15002;52.028;5.670;2022-12-18T16:39:41;3.80;99.10
27559;DHT22;15002;52.028;5.670;2022-12-18T16:42:13;3.70;99.00
27559;DHT22;15002;52.028;5.670;2022-12-18T16:44:41;3.90;98.90
27559;DHT22;15002;52.028;5.670;2022-12-18T16:47:07;4.10;98.70
27559;DHT22;15002;52.028;5.670;2022-12-18T16:49:33;4.10;98.60
27559;DHT22;15002;52.028;5.670;2022-12-18T16:51:59;3.90;98.80
27559;DHT22;15002;52.028;5.670;2022-12-18T16:54:24;3.80;98.80
27559;DHT22;15002;52.028;5.670;2022-12-18T16:56:51;4.00;98.70
27559;DHT22;15002;52.028;5.670;2022-12-18T16:59:17;3.90;98.70
27559;DHT22;15002;52.028;5.670;2022-12-18T17:01:43;3.80;98.90
27559;DHT22;15002;52.028;5.670;2022-12-18T17:04:08;3.70;99.00
27559;DHT22;15002;52.028;5.670;2022-12-18T17:06:38;4.00;98.70
27559;DHT22;15002;52.028;5.670;2022-12-18T17:09:06;4.10;98.50
27559;DHT22;15002;52.028;5.670;2022-12-18T17:11:34;4.00;98.50
27559;DHT22;15002;52.028;5.670;2022-12-18T17:14:14;4.00;98.50
27559;DHT22;15002;52.028;5.670;2022-12-18T17:16:40;3.90;98.60
27559;DHT22;15002;52.028;5.670;2022-12-18T17:19:06;4.00;98.50
27559;DHT22;15002;52.028;5.670;2022-12-18T17:21:32;3.80;98.70
27559;DHT22;15002;52.028;5.670;2022-12-18T17:24:01;3.80;98.80
27559;DHT22;15002;52.028;5.670;2022-12-18T17:26:27;3.90;98.90
27559;DHT22;15002;52.028;5.670;2022-12-18T17:28:55;3.80;98.80
27559;DHT22;15002;52.028;5.670;2022-12-18T17:31:23;3.90;98.80
27559;DHT22;15002;52.028;5.670;2022-12-18T17:33:49;3.80;98.90
27559;DHT22;15002;52.028;5.670;2022-12-18T17:36:16;3.90;98.80
27559;DHT22;15002;52.028;5.670;2022-12-18T17:38:42;4.10;98.60
27559;DHT22;15002;52.028;5.670;2022-12-18T17:41:10;4.00;98.70
27559;DHT22;15002;52.028;5.670;2022-12-18T17:43:36;3.90;98.80
27559;DHT22;15002;52.028;5.670;2022-12-18T17:46:14;3.90;98.70
27559;DHT22;15002;52.028;5.670;2022-12-18T17:48:40;4.10;98.80
27559;DHT22;15002;52.028;5.670;2022-12-18T17:51:07;4.00;98.70
27559;DHT22;15002;52.028;5.670;2022-12-18T17:53:34;4.00;98.70
27559;DHT22;15002;52.028;5.670;2022-12-18T17:56:00;4.10;98.70
27559;DHT22;15002;52.028;5.670;2022-12-18T17:58:28;4.10;98.70